Time;durP1;ratioP1;P1;durP2;ratioP2;P2;SDS_P1;SDS_P2;PMS_P1;PMS_P2;Temp;Humidity;BMP_temperature;BMP_pressure;BME280_temperature;BME280_humidity;BME280_pressure;Samples;Min_cycle;Max_cycle;Signal;HPM_P1;HPM_P2
2023/07/04 00:01:46;;;;;;;;;;;15.30;99.90;;;;;;5092988;28;19935;-69
2023/07/04 00:04:13;;;;;;;;;;;15.40;99.90;;;;;;5093096;28;19909;-65
2023/07/04 00:06:40;;;;;;;;;;;15.40;99.90;;;;;;5092917;28;19908;-64
2023/07/04 00:09:07;;;;;;;;;;;15.50;99.90;;;;;;5092757;28;19961;-65
2023/07/04 00:11:34;;;;;;;;;;;15.50;99.90;;;;;;5092734;28;19954;-65
2023/07/04 00:14:01;;;;;;;;;;;15.50;99.90;;;;;;5092840;28;19994;-64
2023/07/04 00:16:27;;;;;;;;;;;15.50;99.90;;;;;;5093078;28;19915;-63
2023/07/04 00:18:54;;;;;;;;;;;15.60;99.90;;;;;;5092938;28;20479;-65
2023/07/04 00:21:21;;;;;;;;;;;15.60;99.90;;;;;;5092749;28;19913;-67
2023/07/04 00:23:52;;;;;;;;;;;15.60;99.90;;;;;;5092868;28;19908;-64
2023/07/04 00:26:19;;;;;;;;;;;15.70;99.90;;;;;;5093488;28;19908;-65
2023/07/04 00:28:46;;;;;;;;;;;15.70;99.90;;;;;;5096900;28;19947;-65
2023/07/04 00:31:16;;;;;;;;;;;15.70;99.90;;;;;;5097037;28;19918;-64
2023/07/04 00:33:44;;;;;;;;;;;15.70;99.90;;;;;;5096818;28;19954;-65
2023/07/04 00:36:13;;;;;;;;;;;15.70;99.90;;;;;;5096509;28;19908;-64
2023/07/04 00:38:41;;;;;;;;;;;15.70;99.90;;;;;;5078950;28;19919;-65
2023/07/04 00:41:13;;;;;;;;;;;15.70;99.90;;;;;;5096645;28;20268;-64
2023/07/04 00:43:47;;;;;;;;;;;15.70;99.90;;;;;;5096353;28;19912;-64
2023/07/04 00:46:15;;;;;;;;;;;15.70;99.90;;;;;;5096673;28;19920;-66
2023/07/04 00:48:45;;;;;;;;;;;15.60;99.90;;;;;;5096467;28;20272;-62
2023/07/04 00:51:21;;;;;;;;;;;15.80;99.90;;;;;;5096260;28;19916;-64
2023/07/04 00:53:50;;;;;;;;;;;15.80;99.90;;;;;;5096361;28;20372;-64
2023/07/04 00:56:16;;;;;;;;;;;15.80;99.90;;;;;;5096340;28;19908;-67
2023/07/04 00:58:43;;;;;;;;;;;15.70;99.90;;;;;;5096179;28;19915;-64
2023/07/04 01:01:10;;;;;;;;;;;15.70;99.90;;;;;;5096282;28;20288;-64
2023/07/04 01:03:37;;;;;;;;;;;15.80;99.90;;;;;;5096173;28;19908;-66
2023/07/04 01:06:17;;;;;;;;;;;15.80;99.90;;;;;;5096357;28;19908;-64
2023/07/04 01:08:45;;;;;;;;;;;15.70;99.90;;;;;;5095908;28;19917;-64
2023/07/04 01:11:17;;;;;;;;;;;15.60;99.90;;;;;;5096207;28;19916;-63
2023/07/04 01:13:44;;;;;;;;;;;15.60;99.90;;;;;;5095885;28;19908;-65
2023/07/04 01:16:12;;;;;;;;;;;15.50;99.90;;;;;;5095969;28;19914;-65
2023/07/04 01:18:40;;;;;;;;;;;15.60;99.90;;;;;;5095571;28;19915;-62
2023/07/04 01:21:08;;;;;;;;;;;15.60;99.90;;;;;;5095882;28;20280;-64
2023/07/04 01:23:35;;;;;;;;;;;15.60;99.90;;;;;;5095940;28;19912;-63
2023/07/04 01:26:19;;;;;;;;;;;15.60;99.90;;;;;;5095739;28;20284;-63
2023/07/04 01:28:47;;;;;;;;;;;15.70;99.90;;;;;;5095590;28;20317;-64
2023/07/04 01:31:14;;;;;;;;;;;15.90;99.90;;;;;;5095610;28;19994;-63
2023/07/04 01:33:40;;;;;;;;;;;16.00;99.90;;;;;;5095762;28;20389;-62
2023/07/04 01:36:11;;;;;;;;;;;16.10;99.90;;;;;;5095650;28;19998;-65
2023/07/04 01:38:38;;;;;;;;;;;16.20;99.90;;;;;;5094336;28;20038;-64
2023/07/04 01:41:04;;;;;;;;;;;16.10;99.90;;;;;;5095369;28;20395;-64
2023/07/04 01:43:31;;;;;;;;;;;16.20;99.90;;;;;;5095535;28;19973;-67
2023/07/04 01:45:59;;;;;;;;;;;16.20;99.90;;;;;;5095223;28;20020;-63
2023/07/04 01:48:26;;;;;;;;;;;16.20;99.90;;;;;;5095105;28;19993;-64
2023/07/04 01:50:52;;;;;;;;;;;16.20;99.90;;;;;;5095107;28;19915;-63
2023/07/04 01:53:19;;;;;;;;;;;16.10;99.90;;;;;;5095262;28;19970;-63
2023/07/04 01:55:46;;;;;;;;;;;16.30;99.90;;;;;;5095126;28;19919;-63
2023/07/04 01:58:12;;;;;;;;;;;16.30;99.90;;;;;;5095006;28;19908;-64
2023/07/04 02:00:39;;;;;;;;;;;16.30;99.90;;;;;;5094879;28;19916;-62
2023/07/04 02:03:06;;;;;;;;;;;16.40;99.90;;;;;;5095103;28;19912;-62
2023/07/04 02:05:32;;;;;;;;;;;16.40;99.90;;;;;;5095075;28;20369;-64
2023/07/04 02:07:59;;;;;;;;;;;16.40;99.90;;;;;;5094874;28;19958;-63
2023/07/04 02:10:26;;;;;;;;;;;16.50;99.90;;;;;;5095003;28;19915;-65
2023/07/04 02:12:52;;;;;;;;;;;16.40;99.90;;;;;;5094632;28;19909;-64
2023/07/04 02:15:19;;;;;;;;;;;16.40;99.90;;;;;;5094815;28;19908;-64
2023/07/04 02:17:47;;;;;;;;;;;16.40;99.90;;;;;;5094791;28;19923;-63
2023/07/04 02:20:16;;;;;;;;;;;16.40;99.90;;;;;;5094478;28;19984;-64
2023/07/04 02:22:43;;;;;;;;;;;16.40;99.90;;;;;;5094568;28;19991;-63
2023/07/04 02:25:10;;;;;;;;;;;16.40;99.90;;;;;;5094401;28;20285;-64
2023/07/04 02:27:37;;;;;;;;;;;16.40;99.90;;;;;;5094519;28;19912;-63
2023/07/04 02:30:04;;;;;;;;;;;16.30;99.90;;;;;;5094409;28;20254;-64
2023/07/04 02:32:31;;;;;;;;;;;16.30;99.90;;;;;;5094577;28;19908;-64
2023/07/04 02:34:58;;;;;;;;;;;16.30;99.90;;;;;;5094642;28;19908;-64
2023/07/04 02:37:24;;;;;;;;;;;16.30;99.90;;;;;;5094509;28;19962;-64
2023/07/04 02:39:52;;;;;;;;;;;16.30;99.90;;;;;;5075860;28;19916;-65
2023/07/04 02:42:18;;;;;;;;;;;16.20;99.90;;;;;;5094122;28;19908;-64
2023/07/04 02:44:45;;;;;;;;;;;16.30;99.90;;;;;;5093964;28;20316;-64
2023/07/04 02:47:12;;;;;;;;;;;16.30;99.90;;;;;;5094316;28;19961;-64
2023/07/04 02:49:38;;;;;;;;;;;16.20;99.90;;;;;;5093770;28;20416;-63
2023/07/04 02:52:05;;;;;;;;;;;16.20;99.90;;;;;;5093899;28;20364;-65
2023/07/04 02:54:32;;;;;;;;;;;16.30;99.90;;;;;;5075697;28;20371;-65
2023/07/04 02:56:59;;;;;;;;;;;16.20;99.90;;;;;;5094119;28;19915;-67
2023/07/04 02:59:26;;;;;;;;;;;16.20;99.90;;;;;;5093792;28;19916;-65
2023/07/04 03:01:53;;;;;;;;;;;16.30;99.90;;;;;;5093765;28;19912;-67
2023/07/04 03:04:20;;;;;;;;;;;16.40;99.90;;;;;;5093641;28;20360;-63
2023/07/04 03:06:46;;;;;;;;;;;16.40;99.90;;;;;;5093621;28;19957;-68
2023/07/04 03:09:14;;;;;;;;;;;16.40;99.90;;;;;;5093503;28;19930;-63
2023/07/04 03:11:40;;;;;;;;;;;16.40;99.90;;;;;;5093763;28;19960;-68
2023/07/04 03:14:07;;;;;;;;;;;16.40;99.90;;;;;;5093639;28;19976;-68
2023/07/04 03:16:33;;;;;;;;;;;16.50;99.90;;;;;;5093880;28;19931;-64
2023/07/04 03:19:00;;;;;;;;;;;16.60;99.90;;;;;;5093293;28;19908;-64
2023/07/04 03:21:27;;;;;;;;;;;16.70;99.90;;;;;;5093633;28;19919;-66
2023/07/04 03:23:53;;;;;;;;;;;16.80;99.90;;;;;;5093450;28;19908;-64
2023/07/04 03:26:20;;;;;;;;;;;16.90;99.90;;;;;;5093419;28;19916;-67
2023/07/04 03:28:46;;;;;;;;;;;17.00;99.90;;;;;;5093272;28;19915;-66
2023/07/04 03:31:13;;;;;;;;;;;17.10;99.90;;;;;;5093412;28;20009;-65
2023/07/04 03:33:40;;;;;;;;;;;17.10;99.90;;;;;;5093445;28;20003;-64
2023/07/04 03:36:07;;;;;;;;;;;17.20;99.90;;;;;;5093406;28;19915;-65
2023/07/04 03:38:33;;;;;;;;;;;17.30;99.90;;;;;;5093307;28;19908;-65
2023/07/04 03:41:00;;;;;;;;;;;17.30;99.90;;;;;;5093279;28;20430;-65
2023/07/04 03:43:26;;;;;;;;;;;17.30;99.90;;;;;;5093172;28;19916;-65
2023/07/04 03:45:53;;;;;;;;;;;17.40;99.90;;;;;;5093046;28;19967;-64
2023/07/04 03:48:20;;;;;;;;;;;17.40;99.90;;;;;;5092901;28;19939;-64
2023/07/04 03:50:47;;;;;;;;;;;17.30;99.90;;;;;;5092616;28;19969;-65
2023/07/04 03:53:14;;;;;;;;;;;17.30;99.90;;;;;;5092858;28;20326;-64
2023/07/04 03:55:40;;;;;;;;;;;17.20;99.90;;;;;;5093081;28;19915;-63
2023/07/04 03:58:07;;;;;;;;;;;17.20;99.90;;;;;;5093057;28;20380;-66
2023/07/04 04:00:34;;;;;;;;;;;17.20;99.90;;;;;;5092376;28;20014;-66
2023/07/04 04:03:00;;;;;;;;;;;17.00;99.90;;;;;;5092770;28;19916;-66
2023/07/04 04:05:28;;;;;;;;;;;17.00;99.90;;;;;;5092799;28;19909;-64
2023/07/04 04:07:55;;;;;;;;;;;17.00;99.90;;;;;;5093025;28;19904;-66
2023/07/04 04:10:21;;;;;;;;;;;16.90;99.90;;;;;;5093020;28;19977;-65
2023/07/04 04:12:48;;;;;;;;;;;16.80;99.90;;;;;;5092894;28;19931;-66
2023/07/04 04:15:14;;;;;;;;;;;16.80;99.90;;;;;;5092808;28;20277;-64
2023/07/04 04:17:41;;;;;;;;;;;16.70;99.90;;;;;;5093140;28;19916;-64
2023/07/04 04:20:10;;;;;;;;;;;16.70;99.90;;;;;;5092585;28;20356;-64
2023/07/04 04:22:39;;;;;;;;;;;16.80;99.90;;;;;;5093131;28;19927;-64
2023/07/04 04:25:06;;;;;;;;;;;16.80;99.90;;;;;;5092799;28;19943;-62
2023/07/04 04:27:33;;;;;;;;;;;16.80;99.90;;;;;;5092861;28;19908;-64
2023/07/04 04:30:00;;;;;;;;;;;16.80;99.90;;;;;;5092626;28;19915;-64
2023/07/04 04:32:26;;;;;;;;;;;16.80;99.90;;;;;;5092817;28;19913;-64
2023/07/04 04:34:53;;;;;;;;;;;16.80;99.90;;;;;;5092749;28;19962;-63
2023/07/04 04:37:20;;;;;;;;;;;16.60;99.90;;;;;;5092639;28;19912;-64
2023/07/04 04:39:46;;;;;;;;;;;16.60;99.90;;;;;;5074255;28;19955;-63
2023/07/04 04:42:14;;;;;;;;;;;16.50;99.90;;;;;;5074558;28;19914;-64
2023/07/04 04:44:41;;;;;;;;;;;16.40;99.90;;;;;;5092504;28;19920;-65
2023/07/04 04:47:08;;;;;;;;;;;16.30;99.90;;;;;;5091875;28;20323;-63
2023/07/04 04:49:34;;;;;;;;;;;16.20;99.90;;;;;;5092621;28;19915;-63
2023/07/04 04:52:01;;;;;;;;;;;16.10;99.90;;;;;;5092255;28;19908;-66
2023/07/04 04:54:28;;;;;;;;;;;16.10;99.90;;;;;;5092358;28;19908;-64
2023/07/04 04:56:54;;;;;;;;;;;16.00;99.90;;;;;;5092508;28;20003;-65
2023/07/04 04:59:21;;;;;;;;;;;15.90;99.90;;;;;;5092355;28;20065;-64
2023/07/04 05:01:48;;;;;;;;;;;16.00;99.90;;;;;;5092369;28;20048;-65
2023/07/04 05:04:14;;;;;;;;;;;15.80;99.90;;;;;;5092611;28;19998;-65
2023/07/04 05:06:42;;;;;;;;;;;15.80;99.90;;;;;;5074364;28;20432;-64
2023/07/04 05:09:08;;;;;;;;;;;15.70;99.90;;;;;;5092290;28;20041;-64
2023/07/04 05:11:35;;;;;;;;;;;15.70;99.90;;;;;;5092483;28;19970;-65
2023/07/04 05:14:03;;;;;;;;;;;15.60;99.90;;;;;;5095627;28;20392;-65
2023/07/04 05:16:29;;;;;;;;;;;15.60;99.90;;;;;;5095874;28;19908;-64
2023/07/04 05:18:56;;;;;;;;;;;15.60;99.90;;;;;;5095858;28;19915;-64
2023/07/04 05:21:23;;;;;;;;;;;15.70;99.90;;;;;;5095981;28;20003;-64
2023/07/04 05:23:52;;;;;;;;;;;15.60;99.90;;;;;;5095872;28;19915;-63
2023/07/04 05:26:18;;;;;;;;;;;15.60;99.90;;;;;;5095534;28;19930;-64
2023/07/04 05:28:45;;;;;;;;;;;15.60;99.90;;;;;;5095567;28;19916;-65
2023/07/04 05:31:14;;;;;;;;;;;15.60;99.90;;;;;;5095643;28;20396;-64
2023/07/04 05:33:41;;;;;;;;;;;15.60;99.90;;;;;;5095480;28;19943;-65
2023/07/04 05:36:08;;;;;;;;;;;15.40;99.90;;;;;;5095731;28;19915;-64
2023/07/04 05:38:36;;;;;;;;;;;15.40;99.90;;;;;;5095727;28;19908;-66
2023/07/04 05:41:03;;;;;;;;;;;15.40;99.90;;;;;;5095465;28;19920;-64
2023/07/04 05:43:29;;;;;;;;;;;15.30;99.90;;;;;;5095259;28;19912;-63
2023/07/04 05:45:56;;;;;;;;;;;15.20;99.90;;;;;;5095287;28;20349;-64
2023/07/04 05:48:23;;;;;;;;;;;15.20;99.90;;;;;;5095387;28;19908;-65
2023/07/04 05:50:50;;;;;;;;;;;15.20;99.90;;;;;;5095109;28;19915;-64
2023/07/04 05:53:17;;;;;;;;;;;15.10;99.90;;;;;;5095218;28;19908;-63
2023/07/04 05:55:44;;;;;;;;;;;15.10;99.90;;;;;;5095093;28;19908;-64
2023/07/04 05:58:10;;;;;;;;;;;15.10;99.90;;;;;;5095162;28;19912;-64
2023/07/04 06:00:37;;;;;;;;;;;15.00;99.90;;;;;;5095078;28;19924;-63
2023/07/04 06:03:04;;;;;;;;;;;15.10;99.90;;;;;;5094951;28;20360;-66
2023/07/04 06:05:30;;;;;;;;;;;15.00;99.90;;;;;;5095106;28;19916;-65
2023/07/04 06:07:57;;;;;;;;;;;15.00;99.90;;;;;;5095261;28;20326;-65
2023/07/04 06:10:24;;;;;;;;;;;15.00;99.90;;;;;;5095009;28;19908;-64
2023/07/04 06:12:50;;;;;;;;;;;15.00;99.90;;;;;;5094946;28;19961;-63
2023/07/04 06:15:17;;;;;;;;;;;15.00;99.90;;;;;;5094828;28;20315;-64
2023/07/04 06:17:44;;;;;;;;;;;15.00;99.90;;;;;;5094717;28;19912;-62
2023/07/04 06:20:11;;;;;;;;;;;14.90;99.90;;;;;;5094543;28;19923;-63
2023/07/04 06:22:38;;;;;;;;;;;14.90;99.90;;;;;;5094738;28;19916;-64
2023/07/04 06:25:06;;;;;;;;;;;15.00;99.90;;;;;;5094020;28;20294;-66
2023/07/04 06:27:32;;;;;;;;;;;14.90;99.90;;;;;;5094630;28;19915;-64
2023/07/04 06:29:59;;;;;;;;;;;14.90;99.90;;;;;;5094406;28;19908;-64
2023/07/04 06:32:26;;;;;;;;;;;14.90;99.90;;;;;;5094583;28;19908;-64
2023/07/04 06:34:52;;;;;;;;;;;14.90;99.90;;;;;;5094694;28;19908;-63
2023/07/04 06:37:19;;;;;;;;;;;14.90;99.90;;;;;;5094521;28;20439;-66
2023/07/04 06:39:46;;;;;;;;;;;14.90;99.90;;;;;;5094231;28;19920;-63
2023/07/04 06:42:12;;;;;;;;;;;14.90;99.90;;;;;;5094424;28;19908;-66
2023/07/04 06:44:43;;;;;;;;;;;14.90;99.90;;;;;;5094321;28;19927;-63
2023/07/04 06:47:10;;;;;;;;;;;14.90;99.90;;;;;;5094530;28;19912;-64
2023/07/04 06:49:36;;;;;;;;;;;14.90;99.90;;;;;;5094354;28;19912;-65
2023/07/04 06:52:03;;;;;;;;;;;14.80;99.90;;;;;;5094121;28;19908;-63
2023/07/04 06:54:30;;;;;;;;;;;14.80;99.90;;;;;;5094221;28;19908;-63
2023/07/04 06:56:56;;;;;;;;;;;14.80;99.90;;;;;;5093811;28;19916;-64
2023/07/04 06:59:23;;;;;;;;;;;14.80;99.90;;;;;;5093816;28;19919;-64
2023/07/04 07:01:50;;;;;;;;;;;14.80;99.90;;;;;;5094114;28;20292;-63
2023/07/04 07:04:17;;;;;;;;;;;14.80;99.90;;;;;;5093818;28;20370;-64
2023/07/04 07:06:43;;;;;;;;;;;14.80;99.90;;;;;;5093865;28;19908;-68
2023/07/04 07:09:10;;;;;;;;;;;14.80;99.90;;;;;;5093932;28;19943;-65
2023/07/04 07:11:36;;;;;;;;;;;14.70;99.90;;;;;;5093817;28;19946;-64
2023/07/04 07:14:05;;;;;;;;;;;14.70;99.90;;;;;;5093698;28;19908;-70
2023/07/04 07:16:31;;;;;;;;;;;14.70;99.90;;;;;;5093814;28;19912;-65
2023/07/04 07:18:58;;;;;;;;;;;14.70;99.90;;;;;;5093523;28;19915;-64
2023/07/04 07:21:25;;;;;;;;;;;14.70;99.90;;;;;;5093508;28;19919;-63
2023/07/04 07:23:52;;;;;;;;;;;14.60;99.90;;;;;;5093504;28;19916;-63
2023/07/04 07:26:20;;;;;;;;;;;14.60;99.90;;;;;;5093329;28;19908;-63
2023/07/04 07:28:46;;;;;;;;;;;14.70;99.90;;;;;;5093574;28;19912;-63
2023/07/04 07:31:16;;;;;;;;;;;14.60;99.90;;;;;;5093561;28;19908;-64
2023/07/04 07:33:48;;;;;;;;;;;14.70;99.90;;;;;;5093518;28;19908;-64
2023/07/04 07:36:17;;;;;;;;;;;14.70;99.90;;;;;;5092618;28;19912;-65
2023/07/04 07:38:44;;;;;;;;;;;14.60;99.90;;;;;;5093467;28;19915;-64
2023/07/04 07:41:10;;;;;;;;;;;14.60;99.90;;;;;;5093107;28;19917;-64
2023/07/04 07:43:38;;;;;;;;;;;14.60;99.90;;;;;;5092950;28;19908;-62
2023/07/04 07:46:09;;;;;;;;;;;14.60;99.90;;;;;;5093062;28;19924;-63
2023/07/04 07:48:35;;;;;;;;;;;14.60;99.90;;;;;;5092690;28;20300;-63
2023/07/04 07:51:03;;;;;;;;;;;14.50;99.90;;;;;;5093061;28;19948;-64
2023/07/04 07:53:29;;;;;;;;;;;14.50;99.90;;;;;;5093066;28;20451;-64
2023/07/04 07:55:56;;;;;;;;;;;14.50;99.90;;;;;;5093051;28;19916;-64
2023/07/04 07:58:23;;;;;;;;;;;14.50;99.90;;;;;;5093156;28;20310;-68
2023/07/04 08:00:49;;;;;;;;;;;14.50;99.90;;;;;;5093112;28;20287;-63
2023/07/04 08:03:16;;;;;;;;;;;14.50;99.90;;;;;;5093116;28;19908;-66
2023/07/04 08:05:45;;;;;;;;;;;14.40;99.90;;;;;;5093019;28;19959;-65
2023/07/04 08:08:12;;;;;;;;;;;14.40;99.90;;;;;;5092685;28;19912;-63
2023/07/04 08:10:40;;;;;;;;;;;14.40;99.90;;;;;;5092955;28;19913;-64
2023/07/04 08:13:07;;;;;;;;;;;14.40;99.90;;;;;;5092764;28;20356;-66
2023/07/04 08:15:34;;;;;;;;;;;14.40;99.90;;;;;;5092899;28;19908;-63
2023/07/04 08:18:08;;;;;;;;;;;14.40;99.90;;;;;;5092790;28;19969;-64
2023/07/04 08:20:35;;;;;;;;;;;14.40;99.90;;;;;;5092606;28;19970;-63
2023/07/04 08:23:02;;;;;;;;;;;14.40;99.90;;;;;;5092888;28;19908;-65
2023/07/04 08:25:31;;;;;;;;;;;14.30;99.90;;;;;;5092933;28;19947;-65
2023/07/04 08:27:59;;;;;;;;;;;14.30;99.90;;;;;;5092885;28;19955;-63
2023/07/04 08:30:26;;;;;;;;;;;14.30;99.90;;;;;;5092673;28;19908;-64
2023/07/04 08:32:53;;;;;;;;;;;14.40;99.90;;;;;;5092758;28;20003;-68
2023/07/04 08:35:20;;;;;;;;;;;14.40;99.90;;;;;;5093004;28;19908;-62
2023/07/04 08:37:46;;;;;;;;;;;14.40;99.90;;;;;;5092666;28;19958;-64
2023/07/04 08:40:14;;;;;;;;;;;14.30;99.90;;;;;;5092470;28;19920;-66
2023/07/04 08:42:41;;;;;;;;;;;14.40;99.90;;;;;;5074726;28;19912;-66
2023/07/04 08:45:11;;;;;;;;;;;14.30;99.90;;;;;;5092325;28;19926;-65
2023/07/04 08:47:39;;;;;;;;;;;14.40;99.90;;;;;;5094144;28;19916;-65
2023/07/04 08:50:12;;;;;;;;;;;14.30;99.90;;;;;;5096602;28;20002;-65
2023/07/04 08:52:48;;;;;;;;;;;14.40;99.90;;;;;;5096314;28;19912;-64
2023/07/04 08:55:15;;;;;;;;;;;14.30;99.90;;;;;;5077972;28;19912;-68
2023/07/04 08:58:02;;;;;;;;;;;14.30;99.90;;;;;;5078091;28;19908;-66
2023/07/04 09:00:31;;;;;;;;;;;14.30;99.90;;;;;;5096150;28;19917;-64
2023/07/04 09:03:04;;;;;;;;;;;14.30;99.90;;;;;;5096237;28;19908;-64
2023/07/04 09:05:30;;;;;;;;;;;14.30;99.90;;;;;;5096036;28;19908;-64
2023/07/04 09:07:57;;;;;;;;;;;14.30;99.90;;;;;;5096009;28;20272;-65
2023/07/04 09:10:36;;;;;;;;;;;14.30;99.90;;;;;;5096057;28;19915;-64
2023/07/04 09:13:06;;;;;;;;;;;14.40;99.90;;;;;;5096231;28;19908;-67
2023/07/04 09:15:37;;;;;;;;;;;14.30;99.90;;;;;;5077404;28;19908;-63
2023/07/04 09:18:14;;;;;;;;;;;14.30;99.90;;;;;;5096006;28;19909;-65
2023/07/04 09:20:49;;;;;;;;;;;14.30;99.90;;;;;;5077572;28;19916;-65
2023/07/04 09:23:21;;;;;;;;;;;14.30;99.90;;;;;;5095777;28;19916;-67
2023/07/04 09:25:53;;;;;;;;;;;14.30;99.90;;;;;;5095869;28;20273;-65
2023/07/04 09:28:19;;;;;;;;;;;14.30;99.90;;;;;;5077592;28;19981;-64
2023/07/04 09:30:46;;;;;;;;;;;14.30;99.90;;;;;;5095466;28;19912;-66
2023/07/04 09:33:14;;;;;;;;;;;14.30;99.90;;;;;;5095621;28;20381;-64
2023/07/04 09:35:42;;;;;;;;;;;14.30;99.90;;;;;;5095684;28;19916;-64
2023/07/04 09:38:08;;;;;;;;;;;14.30;99.90;;;;;;5095829;28;19955;-64
2023/07/04 09:40:43;;;;;;;;;;;14.30;99.90;;;;;;5095495;28;19916;-64
2023/07/04 09:43:11;;;;;;;;;;;14.30;99.90;;;;;;5095375;28;19919;-66
2023/07/04 09:45:38;;;;;;;;;;;14.30;99.90;;;;;;5095389;28;19920;-65
2023/07/04 09:48:07;;;;;;;;;;;14.30;99.90;;;;;;5095353;28;20311;-64
2023/07/04 09:50:36;;;;;;;;;;;14.30;99.90;;;;;;5095331;28;19947;-69
2023/07/04 09:53:10;;;;;;;;;;;14.30;99.90;;;;;;5095188;28;19947;-64
2023/07/04 09:55:41;;;;;;;;;;;14.30;99.90;;;;;;5095034;28;19930;-63
2023/07/04 09:58:18;;;;;;;;;;;14.30;99.90;;;;;;5094909;28;19961;-64
2023/07/04 10:00:46;;;;;;;;;;;14.30;99.90;;;;;;5094360;28;19916;-64
2023/07/04 10:03:13;;;;;;;;;;;14.30;99.90;;;;;;5077076;28;19908;-65
2023/07/04 10:05:41;;;;;;;;;;;14.30;99.90;;;;;;5095162;28;20015;-64
2023/07/04 10:08:09;;;;;;;;;;;14.30;99.90;;;;;;5076882;28;19995;-65
2023/07/04 10:10:44;;;;;;;;;;;14.30;99.90;;;;;;5094981;28;20003;-67
2023/07/04 10:13:12;;;;;;;;;;;14.30;99.90;;;;;;5076884;28;19908;-63
2023/07/04 10:15:41;;;;;;;;;;;14.40;99.90;;;;;;5094992;28;19912;-64
2023/07/04 10:18:11;;;;;;;;;;;14.40;99.90;;;;;;5076626;28;19908;-69
2023/07/04 10:20:40;;;;;;;;;;;14.40;99.90;;;;;;5094677;28;19923;-64
2023/07/04 10:23:06;;;;;;;;;;;14.30;99.90;;;;;;5094820;28;20419;-64
2023/07/04 10:25:33;;;;;;;;;;;14.40;99.90;;;;;;5094820;28;20483;-65
2023/07/04 10:28:19;;;;;;;;;;;14.40;99.90;;;;;;5094691;28;19908;-66
2023/07/04 10:30:49;;;;;;;;;;;14.40;99.90;;;;;;5094466;28;20280;-64
2023/07/04 10:33:18;;;;;;;;;;;14.40;99.90;;;;;;5094613;28;19908;-66
2023/07/04 10:35:47;;;;;;;;;;;14.40;99.90;;;;;;5094607;28;19908;-65
2023/07/04 10:38:17;;;;;;;;;;;14.40;99.90;;;;;;5094402;28;20236;-68
2023/07/04 10:40:45;;;;;;;;;;;14.30;99.90;;;;;;5094476;28;20006;-68
2023/07/04 10:43:20;;;;;;;;;;;14.40;99.90;;;;;;5094116;28;19912;-65
2023/07/04 10:45:48;;;;;;;;;;;14.40;99.90;;;;;;5076293;28;20445;-66
2023/07/04 10:48:16;;;;;;;;;;;14.30;99.90;;;;;;5094257;28;19961;-65
2023/07/04 10:50:54;;;;;;;;;;;14.40;99.90;;;;;;5094286;28;20365;-67
2023/07/04 10:53:21;;;;;;;;;;;14.40;99.90;;;;;;5094575;28;19955;-65
2023/07/04 10:55:49;;;;;;;;;;;14.40;99.90;;;;;;5094228;28;20353;-64
2023/07/04 10:58:20;;;;;;;;;;;14.40;99.90;;;;;;5075837;28;19912;-64
2023/07/04 11:00:47;;;;;;;;;;;14.30;99.90;;;;;;5093907;28;20296;-65
2023/07/04 11:03:14;;;;;;;;;;;14.30;99.90;;;;;;5093837;28;19908;-64
2023/07/04 11:05:51;;;;;;;;;;;14.30;99.90;;;;;;5093863;28;19915;-65
2023/07/04 11:08:20;;;;;;;;;;;14.40;99.90;;;;;;5093851;28;19908;-65
2023/07/04 11:10:51;;;;;;;;;;;14.40;99.90;;;;;;5093709;28;19904;-64
2023/07/04 11:13:22;;;;;;;;;;;14.40;99.90;;;;;;5093599;28;19908;-63
2023/07/04 11:15:57;;;;;;;;;;;14.40;99.90;;;;;;5093672;28;19915;-65
2023/07/04 11:18:30;;;;;;;;;;;14.40;99.90;;;;;;5094310;28;19999;-64
2023/07/04 11:21:10;;;;;;;;;;;14.40;99.90;;;;;;5094300;28;19988;-64
2023/07/04 11:23:43;;;;;;;;;;;14.40;99.90;;;;;;5094326;28;19965;-64
2023/07/04 11:26:09;;;;;;;;;;;14.40;99.90;;;;;;5093594;28;19908;-65
2023/07/04 11:28:36;;;;;;;;;;;14.40;99.90;;;;;;5093727;28;19912;-64
2023/07/04 11:31:12;;;;;;;;;;;14.40;99.90;;;;;;5093722;28;20276;-64
2023/07/04 11:34:01;;;;;;;;;;;14.40;99.90;;;;;;5094579;28;19908;-66
2023/07/04 11:36:36;;;;;;;;;;;14.40;99.90;;;;;;5094428;28;19950;-66
2023/07/04 11:39:17;;;;;;;;;;;14.40;99.90;;;;;;5093868;28;19908;-67
2023/07/04 11:41:43;;;;;;;;;;;14.30;99.90;;;;;;5075421;28;19923;-67
2023/07/04 11:44:24;;;;;;;;;;;14.40;99.90;;;;;;5093176;28;19919;-66
2023/07/04 11:47:04;;;;;;;;;;;14.30;99.90;;;;;;5075508;28;19935;-66
2023/07/04 11:49:32;;;;;;;;;;;14.30;99.90;;;;;;5093199;28;19908;-67
2023/07/04 11:52:07;;;;;;;;;;;14.30;99.90;;;;;;5093627;28;19998;-64
2023/07/04 11:54:34;;;;;;;;;;;14.30;99.90;;;;;;5094185;28;19961;-66
2023/07/04 11:57:01;;;;;;;;;;;14.40;99.90;;;;;;5093784;28;19916;-67
2023/07/04 11:59:48;;;;;;;;;;;14.30;99.90;;;;;;5093538;28;19923;-66
2023/07/04 12:02:24;;;;;;;;;;;14.30;99.90;;;;;;5093617;28;20000;-64
2023/07/04 12:04:51;;;;;;;;;;;14.30;99.90;;;;;;5093744;28;19915;-66
2023/07/04 12:07:18;;;;;;;;;;;14.40;99.90;;;;;;5093826;28;19908;-67
2023/07/04 12:09:48;;;;;;;;;;;14.30;99.90;;;;;;5093275;28;19908;-68
2023/07/04 12:12:27;;;;;;;;;;;14.30;99.90;;;;;;5093465;28;19908;-68
2023/07/04 12:15:08;;;;;;;;;;;14.30;99.90;;;;;;5092982;28;20070;-65
2023/07/04 12:17:45;;;;;;;;;;;14.30;99.90;;;;;;5093180;28;19908;-67
2023/07/04 12:20:16;;;;;;;;;;;14.30;99.90;;;;;;5092813;28;19912;-68
2023/07/04 12:22:51;;;;;;;;;;;14.30;99.90;;;;;;5094549;28;19908;-69
2023/07/04 12:25:23;;;;;;;;;;;14.30;99.90;;;;;;5096822;28;20288;-68
2023/07/04 12:27:52;;;;;;;;;;;14.30;99.90;;;;;;5097066;28;19908;-67
2023/07/04 12:30:19;;;;;;;;;;;14.30;99.90;;;;;;5096962;28;19916;-67
2023/07/04 12:32:48;;;;;;;;;;;14.30;99.90;;;;;;5096971;28;19963;-68
2023/07/04 12:35:16;;;;;;;;;;;14.20;99.90;;;;;;5096854;28;19943;-68
2023/07/04 12:37:53;;;;;;;;;;;14.30;99.90;;;;;;5096503;28;19961;-69
2023/07/04 12:40:30;;;;;;;;;;;14.30;99.90;;;;;;5096456;28;19923;-68
2023/07/04 12:43:00;;;;;;;;;;;14.30;99.90;;;;;;5096513;28;19965;-67
2023/07/04 12:45:28;;;;;;;;;;;14.20;99.90;;;;;;5096598;28;19923;-66
2023/07/04 12:47:59;;;;;;;;;;;14.30;99.90;;;;;;5096568;28;19958;-66
2023/07/04 12:50:27;;;;;;;;;;;14.20;99.90;;;;;;5096609;28;19955;-67
2023/07/04 12:52:54;;;;;;;;;;;14.20;99.90;;;;;;5096298;28;19908;-67
2023/07/04 12:55:21;;;;;;;;;;;14.20;99.90;;;;;;5096531;28;19908;-67
2023/07/04 12:57:49;;;;;;;;;;;14.10;99.90;;;;;;5096524;28;20447;-65
2023/07/04 13:00:24;;;;;;;;;;;14.10;99.90;;;;;;5096386;28;19954;-67
2023/07/04 13:02:51;;;;;;;;;;;14.10;99.90;;;;;;5096157;28;19962;-66
2023/07/04 13:05:18;;;;;;;;;;;14.00;99.90;;;;;;5096197;28;20010;-67
2023/07/04 13:07:46;;;;;;;;;;;14.00;99.90;;;;;;5096322;28;20412;-67
2023/07/04 13:10:20;;;;;;;;;;;14.00;99.90;;;;;;5096267;28;19913;-65
2023/07/04 13:12:47;;;;;;;;;;;14.00;99.90;;;;;;5096068;28;19919;-66
2023/07/04 13:15:25;;;;;;;;;;;13.90;99.90;;;;;;5096284;28;19999;-65
2023/07/04 13:17:57;;;;;;;;;;;13.90;99.90;;;;;;5095901;28;19908;-65
2023/07/04 13:20:26;;;;;;;;;;;13.80;99.90;;;;;;5096469;28;19969;-64
2023/07/04 13:22:53;;;;;;;;;;;13.80;99.90;;;;;;5096088;28;20369;-64
2023/07/04 13:25:21;;;;;;;;;;;13.80;99.90;;;;;;5095959;28;20334;-64
2023/07/04 13:27:48;;;;;;;;;;;13.80;99.90;;;;;;5095628;28;20397;-65
2023/07/04 13:30:35;;;;;;;;;;;13.80;99.90;;;;;;5095722;28;20340;-64
2023/07/04 13:33:02;;;;;;;;;;;13.80;99.90;;;;;;5095069;28;19960;-64
2023/07/04 13:35:34;;;;;;;;;;;13.80;99.90;;;;;;5094847;28;20045;-64
2023/07/04 13:38:01;;;;;;;;;;;13.80;99.90;;;;;;5095404;28;19951;-64
2023/07/04 13:40:28;;;;;;;;;;;13.70;99.90;;;;;;5095427;28;19916;-66
2023/07/04 13:43:04;;;;;;;;;;;13.60;99.90;;;;;;5095775;28;20386;-66
2023/07/04 13:45:31;;;;;;;;;;;13.70;99.90;;;;;;5095472;28;19965;-65
2023/07/04 13:47:58;;;;;;;;;;;13.70;99.90;;;;;;5095391;28;19908;-67
2023/07/04 13:50:25;;;;;;;;;;;13.60;99.90;;;;;;5095154;28;19969;-67
2023/07/04 13:52:52;;;;;;;;;;;13.60;99.90;;;;;;5095140;28;20295;-65
2023/07/04 13:55:19;;;;;;;;;;;13.70;99.90;;;;;;5095444;28;20357;-64
2023/07/04 13:57:46;;;;;;;;;;;13.70;99.90;;;;;;5095462;28;19908;-65
2023/07/04 14:00:13;;;;;;;;;;;13.70;99.90;;;;;;5095267;28;19957;-64
2023/07/04 14:02:40;;;;;;;;;;;13.70;99.90;;;;;;5095228;28;19914;-64
2023/07/04 14:05:07;;;;;;;;;;;13.80;99.90;;;;;;5095019;28;19965;-65
2023/07/04 14:07:34;;;;;;;;;;;13.70;99.90;;;;;;5094915;28;19908;-64
2023/07/04 14:10:00;;;;;;;;;;;13.70;99.90;;;;;;5094820;28;20258;-64
2023/07/04 14:12:27;;;;;;;;;;;13.60;99.90;;;;;;5095134;28;19908;-63
2023/07/04 14:14:54;;;;;;;;;;;13.60;99.90;;;;;;5094877;28;20001;-64
2023/07/04 14:17:21;;;;;;;;;;;13.60;99.90;;;;;;5094931;28;19908;-64
2023/07/04 14:19:47;;;;;;;;;;;13.60;99.90;;;;;;5094604;28;19916;-64
2023/07/04 14:22:14;;;;;;;;;;;13.70;99.90;;;;;;5095125;28;19915;-66
2023/07/04 14:24:41;;;;;;;;;;;13.70;99.90;;;;;;5094675;28;19995;-65